createdAt,value
2017-12-16T00:12:20.007Z,4.70
2017-12-16T00:17:20.828Z,6.27
2017-12-16T00:22:21.716Z,4.93
2017-12-16T00:27:22.584Z,5.07
2017-12-16T00:32:30.465Z,5.47
2017-12-16T00:37:31.286Z,3.80
2017-12-16T00:42:32.085Z,7.77
2017-12-16T00:47:34.919Z,9.00
2017-12-16T00:52:35.733Z,6.27
2017-12-16T00:57:36.543Z,10.60
2017-12-16T01:02:37.324Z,21.13
2017-12-16T01:07:38.123Z,9.37
2017-12-16T01:12:38.915Z,7.73
2017-12-16T01:17:39.730Z,9.60
2017-12-16T01:22:44.178Z,6.90
2017-12-16T01:27:44.978Z,5.50
2017-12-16T01:32:45.778Z,7.97
2017-12-16T01:37:58.771Z,5.80
2017-12-16T01:42:59.575Z,5.93
2017-12-16T01:48:00.381Z,5.00
2017-12-16T01:53:01.217Z,9.40
2017-12-16T01:58:02.017Z,5.10
2017-12-16T02:03:02.810Z,7.13
2017-12-16T02:08:03.659Z,5.43
2017-12-16T02:13:04.470Z,5.23
2017-12-16T02:18:08.341Z,8.70
2017-12-16T02:23:09.180Z,6.07
2017-12-16T02:28:10.016Z,5.97
2017-12-16T02:33:10.853Z,5.80
2017-12-16T02:38:11.654Z,5.70
2017-12-16T02:43:12.450Z,5.73
2017-12-16T02:48:13.317Z,6.00
2017-12-16T02:53:14.132Z,4.97
2017-12-16T02:58:14.955Z,5.37
2017-12-16T03:03:30.727Z,6.10
2017-12-16T03:08:31.557Z,8.30
2017-12-16T03:13:32.431Z,6.20
2017-12-16T03:18:33.228Z,5.57
2017-12-16T03:23:34.091Z,5.53
2017-12-16T03:28:34.921Z,6.87
2017-12-16T03:33:35.790Z,7.17
2017-12-16T03:38:37.314Z,7.93
2017-12-16T03:43:38.137Z,8.23
2017-12-16T03:48:38.925Z,7.93
2017-12-16T03:53:39.730Z,6.40
2017-12-16T03:58:40.565Z,6.63
2017-12-16T04:03:41.365Z,5.20
2017-12-16T04:08:42.173Z,6.23
2017-12-16T04:13:42.990Z,6.73
2017-12-16T04:18:43.820Z,6.20
2017-12-16T04:23:44.618Z,7.90
2017-12-16T04:28:45.433Z,8.60
2017-12-16T04:33:46.237Z,5.60
2017-12-16T04:38:47.004Z,6.80
2017-12-16T04:43:47.805Z,6.73
2017-12-16T04:48:48.633Z,8.43
2017-12-16T04:53:49.432Z,8.43
2017-12-16T04:58:50.264Z,7.90
2017-12-16T05:03:51.130Z,7.80
2017-12-16T05:08:51.908Z,8.80
2017-12-16T05:13:52.714Z,7.30
2017-12-16T05:18:53.540Z,10.60
2017-12-16T05:23:54.406Z,8.40
2017-12-16T05:28:55.217Z,7.33
2017-12-16T05:33:56.043Z,7.50
2017-12-16T05:38:56.893Z,7.00
2017-12-16T05:43:57.734Z,6.63
2017-12-16T05:48:58.554Z,6.37
2017-12-16T05:53:59.364Z,7.30
2017-12-16T05:59:00.161Z,7.50
2017-12-16T06:04:01.963Z,8.60
2017-12-16T06:09:02.820Z,8.73
2017-12-16T06:14:03.624Z,6.73
2017-12-16T06:19:04.408Z,7.37
2017-12-16T06:24:05.246Z,7.53
2017-12-16T06:29:06.060Z,7.07
2017-12-16T06:34:06.850Z,8.33
2017-12-16T06:39:07.666Z,9.13
2017-12-16T06:44:10.466Z,7.73
2017-12-16T06:49:11.272Z,7.30
2017-12-16T06:54:12.042Z,7.93
2017-12-16T06:59:12.837Z,8.47
2017-12-16T07:04:13.669Z,7.87
2017-12-16T07:09:14.481Z,8.03
2017-12-16T07:14:15.452Z,8.23
2017-12-16T07:19:16.373Z,10.00
2017-12-16T07:24:17.304Z,12.30
2017-12-16T07:29:19.248Z,16.97
2017-12-16T07:34:20.132Z,14.10
2017-12-16T07:39:21.055Z,12.20
2017-12-16T07:44:22.070Z,10.87
2017-12-16T07:49:22.905Z,10.93
2017-12-16T07:54:23.848Z,8.30
2017-12-16T07:59:24.713Z,13.67
2017-12-16T08:04:25.673Z,9.00
2017-12-16T08:09:26.611Z,8.80
2017-12-16T08:14:27.507Z,10.60
2017-12-16T08:19:28.336Z,11.23
2017-12-16T08:24:29.270Z,9.80
2017-12-16T08:29:30.188Z,11.53
2017-12-16T08:34:31.149Z,12.73
2017-12-16T08:39:38.056Z,12.13
2017-12-16T08:44:39.013Z,11.07
2017-12-16T08:49:39.874Z,10.67
2017-12-16T08:54:40.845Z,14.40
2017-12-16T08:59:41.692Z,9.60
2017-12-16T09:04:42.652Z,11.00
2017-12-16T09:09:43.517Z,10.20
2017-12-16T09:14:44.404Z,11.63
2017-12-16T09:19:45.266Z,11.07
2017-12-16T09:24:46.094Z,11.20
2017-12-16T09:29:47.053Z,10.60
2017-12-16T09:34:47.971Z,8.90
2017-12-16T09:39:48.927Z,10.57
2017-12-16T09:44:49.944Z,13.10
2017-12-16T09:49:50.916Z,11.57
2017-12-16T09:54:51.812Z,16.40
2017-12-16T09:59:52.802Z,13.67
2017-12-16T10:04:53.746Z,11.60
2017-12-16T10:09:54.674Z,10.47
2017-12-16T10:14:55.655Z,12.17
2017-12-16T10:19:56.655Z,12.80
2017-12-16T10:24:57.580Z,10.50
2017-12-16T10:30:01.985Z,10.67
2017-12-16T10:35:04.031Z,9.50
2017-12-16T10:40:04.961Z,9.73
2017-12-16T10:45:06.001Z,10.47
2017-12-16T10:50:10.074Z,13.47
2017-12-16T10:55:10.985Z,10.73
2017-12-16T11:00:12.216Z,10.87
2017-12-16T11:05:13.168Z,15.80
2017-12-16T11:10:14.149Z,14.80
2017-12-16T11:15:27.717Z,12.23
2017-12-16T11:20:28.665Z,14.67
2017-12-16T11:25:29.561Z,14.73
2017-12-16T11:30:30.549Z,14.63
2017-12-16T11:35:31.421Z,20.33
2017-12-16T11:40:32.390Z,15.93
2017-12-16T11:45:33.240Z,19.10
2017-12-16T11:50:34.222Z,11.07
2017-12-16T11:55:35.103Z,13.17
2017-12-16T12:00:36.038Z,14.87
2017-12-16T12:05:54.671Z,11.90
2017-12-16T12:10:55.618Z,13.73
2017-12-16T12:15:56.620Z,9.30
2017-12-16T12:20:57.543Z,9.80
2017-12-16T12:25:58.446Z,10.07
2017-12-16T12:30:59.587Z,10.70
2017-12-16T12:36:01.243Z,11.30
2017-12-16T12:41:02.158Z,9.17
2017-12-16T12:46:03.077Z,9.63
2017-12-16T12:51:04.033Z,10.90
2017-12-16T12:56:04.916Z,12.90
2017-12-16T13:01:05.990Z,11.80
2017-12-16T13:06:06.867Z,8.60
2017-12-16T13:11:07.746Z,9.10
2017-12-16T13:21:50.374Z,8.10
2017-12-16T13:26:51.304Z,8.77
2017-12-16T13:31:52.267Z,11.37
2017-12-16T13:36:53.178Z,13.47
2017-12-16T13:41:54.235Z,9.07
2017-12-16T13:46:55.111Z,9.20
2017-12-16T13:51:56.059Z,17.23
2017-12-16T13:56:56.899Z,9.60
2017-12-16T14:01:57.977Z,8.80
2017-12-16T14:06:58.964Z,10.63
2017-12-16T14:11:59.894Z,10.47
2017-12-16T14:17:01.410Z,13.07
2017-12-16T14:22:02.342Z,10.40
2017-12-16T14:27:03.308Z,11.87
2017-12-16T14:32:04.309Z,12.70
2017-12-16T14:37:05.266Z,16.00
2017-12-16T14:42:06.311Z,11.70
2017-12-16T14:47:13.049Z,9.80
2017-12-16T14:52:14.030Z,11.33
2017-12-16T14:57:14.871Z,13.33
2017-12-16T15:02:15.850Z,13.40
2017-12-16T15:07:17.758Z,12.00
2017-12-16T15:12:18.672Z,12.70
2017-12-16T15:17:19.643Z,14.97
2017-12-16T15:22:20.712Z,14.77
2017-12-16T15:27:21.701Z,13.17
2017-12-16T15:32:22.601Z,12.00
2017-12-16T15:37:23.553Z,11.43
2017-12-16T15:42:24.460Z,17.90
2017-12-16T15:47:25.883Z,11.57
2017-12-16T15:52:27.679Z,14.70
2017-12-16T15:57:29.405Z,16.97
2017-12-16T16:02:30.375Z,18.50
2017-12-16T16:07:31.382Z,13.73
2017-12-16T16:12:32.296Z,17.40
2017-12-16T16:17:33.270Z,19.23
2017-12-16T16:22:34.239Z,17.43
2017-12-16T16:27:35.194Z,14.37
2017-12-16T16:32:36.140Z,14.63
2017-12-16T16:37:37.177Z,18.40
2017-12-16T16:42:38.072Z,14.27
2017-12-16T16:47:39.178Z,17.03
2017-12-16T16:52:40.042Z,15.93
2017-12-16T16:57:51.905Z,14.47
2017-12-16T17:02:52.786Z,13.23
2017-12-16T17:08:08.157Z,18.00
2017-12-16T17:13:08.982Z,14.07
2017-12-16T17:18:09.928Z,14.37
2017-12-16T17:23:10.788Z,12.73
2017-12-16T17:28:12.524Z,16.90
2017-12-16T17:33:13.373Z,14.13
2017-12-16T17:38:39.017Z,14.80
2017-12-16T17:43:39.856Z,14.33
2017-12-16T17:48:40.725Z,17.97
2017-12-16T17:53:41.588Z,14.20
2017-12-16T17:58:49.525Z,13.87
2017-12-16T18:03:50.385Z,15.73
2017-12-16T18:08:54.984Z,14.50
2017-12-16T18:13:55.900Z,14.47
2017-12-16T18:19:00.742Z,15.00
2017-12-16T18:24:01.652Z,13.43
2017-12-16T18:29:02.652Z,12.53
2017-12-16T18:34:03.571Z,14.70
2017-12-16T18:39:19.710Z,15.17
2017-12-16T18:44:20.599Z,13.97
2017-12-16T18:49:28.742Z,15.27
2017-12-16T18:54:41.318Z,16.77
2017-12-16T18:59:42.148Z,15.70
2017-12-16T19:04:46.832Z,15.80
2017-12-16T19:09:47.692Z,16.43
2017-12-16T19:14:50.621Z,16.87
2017-12-16T19:20:02.128Z,14.03
2017-12-16T19:25:02.961Z,14.37
2017-12-16T19:30:03.863Z,17.00
2017-12-16T19:35:04.733Z,16.13
2017-12-16T19:40:05.564Z,15.10
2017-12-16T19:45:07.377Z,12.93
2017-12-16T19:50:08.283Z,16.20
2017-12-16T19:55:15.146Z,15.50
2017-12-16T20:00:17.992Z,21.53
2017-12-16T20:05:20.912Z,18.37
2017-12-16T20:10:21.803Z,15.50
2017-12-16T20:15:22.679Z,15.13
2017-12-16T20:20:29.635Z,19.67
2017-12-16T20:25:49.569Z,23.17
2017-12-16T20:31:05.377Z,17.70
2017-12-16T20:36:06.224Z,17.37
2017-12-16T20:41:07.126Z,20.57
2017-12-16T20:46:11.351Z,18.67
2017-12-16T20:51:13.256Z,19.57
2017-12-16T20:56:24.842Z,17.43
2017-12-16T21:01:25.712Z,16.77
2017-12-16T21:06:26.591Z,17.20
2017-12-16T21:11:52.085Z,24.20
2017-12-16T21:16:59.371Z,18.43
2017-12-16T21:22:00.240Z,18.43
2017-12-16T21:27:01.132Z,20.07
2017-12-16T21:32:02.015Z,22.10
2017-12-16T21:37:02.906Z,21.00
2017-12-16T21:42:03.811Z,22.87
2017-12-16T21:47:04.857Z,22.20
2017-12-16T21:52:05.703Z,25.97
2017-12-16T21:57:06.600Z,19.17
2017-12-16T22:02:07.430Z,23.00
2017-12-16T22:07:22.846Z,19.60
2017-12-16T22:12:23.705Z,19.83
2017-12-16T22:17:24.620Z,16.20
2017-12-16T22:22:32.170Z,16.73
2017-12-16T22:27:37.080Z,17.07
2017-12-16T22:32:41.203Z,19.77
2017-12-16T22:37:42.215Z,19.77
2017-12-16T22:42:49.714Z,20.47
2017-12-16T22:47:52.632Z,18.53
2017-12-16T22:52:55.547Z,18.73
2017-12-16T22:57:56.392Z,18.00
2017-12-16T23:02:57.252Z,17.60
2017-12-16T23:07:58.118Z,18.93
2017-12-16T23:12:58.980Z,16.83
2017-12-16T23:17:59.819Z,16.37
2017-12-16T23:23:00.656Z,20.43
2017-12-16T23:28:01.506Z,17.70
2017-12-16T23:33:02.351Z,19.83
2017-12-16T23:38:04.175Z,14.40
2017-12-16T23:43:04.988Z,15.27
2017-12-16T23:48:05.826Z,18.23
2017-12-16T23:53:06.617Z,20.07
2017-12-16T23:58:21.937Z,16.70
